Seaton, Texas
Current Conditions -  °F | °C
As of 7:55 PM on Wednesday 22 Oct 2014 (Local Time) from KTPL Reporting Station
Clear Clear  
Wind Chill: 72°   Ceiling: Unl
Heat Index: 72°   Visibility: 10mi
Dew Point: 55°   Wind: 7mph
Humidity: 57%   Direction: 70°ENE
Pressure: 30.08"   Gusts: NA
Location:  31.0795°N, 97.3287°W
Report Text: KTPL 230055Z AUTO 07006KT 10SM CLR 22/13 A3008 RMK AO1
Loading
Personal Weather Stations






























Interactive Weather Map New forecast layout! Learn more

10-Day Weather Forecast

Advertisements
Track Severe Weather on mobile